Portada
METAR-TAF:

METAR-TAF

Aeroports :

Sfax, Tunísia

Aeroport Internacional de Sfax

latitud: 34-43N, longitud: 010-41E, altitud: 21 m

Observació

L'informe es va fer fa 56 minuts, a les 21:00 UTC
Vent 6 kt del Est
Temperatura 19°C
Humitat 78%
Pressió 1017 hPa
Visibilitat: 8000 m

METAR: DTTX 222100Z 08006KT 8000 NSC 19/15 Q1017 NOSIG

Hora: 22:56 (21:56 UTC)

Pronòstic

L'informe es va fer fa 16 minuts, a les 21:40 UTC
Pronòstic vàlid del 22 a les 22 UTC al 23 a les 07 UTC
Vent 10 kt del Est
Visibilitat 10 km o més
sense núvols per sota de 1500 mi sense presència de cumulonimbus.
Probabilitat 40% :
Temporalment
l' 23 a les 02 UTC al 23 a les 04 UTC
Visibilitat: 2000 m
Escasses núvols a una alçada de 1000 ft
boirina

TAF: DTTX 222140Z 2222/2307 10010KT CAVOK PROB40 TEMPO 2302/2304 2000 BR FEW010

Observacions i pronòstics meteorològics de més de 4000 aeroports (METAR i TAF).

Les estacions disponibles són els punts grocs i vermells al mapa.

Posi el ratolí al punt desitjat per veure el nom de l'estació.

Feu clic per veure les observacions i els pronòstics meteorològics.

Per canviar el mapa: feu clic els botons verds amb una creu de color negre per apropar; al botó verd amb un guió per allunyar la imatge; o en les fletxes verdes per a mapes adjacents.


METAR-TAF: